Skip Navigation LinksHome page > Weather > Current weather Skip Navigation Links

Current Weather

General Mitchell International, Milwaukee

For information only: do not use for flight planning or navigation.
Latest weather
Observation time Sunday, September 20, 2020 7:52 AM CDT
Local time Sunday, September 20, 2020 8:43 AM CDT
Flight conditions Visual Meteorological Conditions
Winds
Wind speed calm
Visibility 10 mi.
Sky condition
Ceiling unlimited
Cloud layer few clouds 25,000 ft.
Temperature 52°F
Dewpoint 46°F
Altimeter 30.42 in.Hg
Derived measurements
Relative humidity 80%
Density altitude -160 ft.
Sea-level pressure 30.42 in.Hg
Remarks
System requires maintenance.
Automated weather observing station with precipitation discriminator.
METAR KMKE 201252Z 00000KT 10SM FEW250 11/08 A3042 RMK AO2 SLP302 T01110078 $

Settings

Location code

InnerDrive.Weather 4.0.6770.0 Release CLR 4.0.30319.42000
Copyright ©2018 Inner Drive Technology. All rights reserved. Portions Copyright ©1986-2018 David Braverman.

Find weather

Site navigation


Skip Navigation Links

Place info

Page info

PayPal - The safer, easier way to pay online!

Return home.

Copyright ©2020 Inner Drive Technology. Purveyors of fine, hand-crafted computer software. Page printed 2020-09-20T13:43:52 UTC.